createdAt,value
2022-12-08T00:00:05.843Z,53.20
2022-12-08T00:01:06.573Z,57.90
2022-12-08T00:02:06.003Z,58.90
2022-12-08T00:03:07.182Z,56.50
2022-12-08T00:04:07.297Z,66.20
2022-12-08T00:05:06.802Z,61.80
2022-12-08T00:06:05.759Z,60.00
2022-12-08T00:07:05.732Z,65.80
2022-12-08T00:08:05.812Z,59.60
2022-12-08T00:09:05.745Z,58.40
2022-12-08T00:10:46.525Z,61.80
2022-12-08T00:11:05.702Z,60.10
2022-12-08T00:12:05.691Z,61.40
2022-12-08T00:13:05.693Z,67.70
2022-12-08T00:14:06.599Z,58.10
2022-12-08T00:15:05.893Z,65.20
2022-12-08T00:16:05.685Z,60.70
2022-12-08T00:17:06.455Z,61.20
2022-12-08T00:18:05.662Z,58.40
2022-12-08T00:19:05.616Z,59.30
2022-12-08T00:20:05.608Z,62.50
2022-12-08T00:21:06.106Z,60.70
2022-12-08T00:22:05.588Z,63.20
2022-12-08T00:23:06.565Z,58.90
2022-12-08T00:24:05.556Z,55.10
2022-12-08T00:25:05.920Z,55.60
2022-12-08T00:26:05.549Z,55.30
2022-12-08T00:27:05.593Z,56.80
2022-12-08T00:28:05.528Z,61.80
2022-12-08T00:29:06.224Z,62.00
2022-12-08T00:30:06.236Z,68.80
2022-12-08T00:31:05.496Z,70.40
2022-12-08T00:32:05.596Z,68.80
2022-12-08T00:33:05.509Z,62.10
2022-12-08T00:34:05.457Z,67.40
2022-12-08T00:35:05.939Z,63.80
2022-12-08T00:36:06.085Z,62.50
2022-12-08T00:37:05.420Z,68.90
2022-12-08T00:38:06.450Z,61.80
2022-12-08T00:39:05.418Z,65.10
2022-12-08T00:40:05.840Z,75.10
2022-12-08T00:41:06.209Z,69.20
2022-12-08T00:42:05.409Z,60.60
2022-12-08T00:43:05.375Z,68.50
2022-12-08T00:44:05.358Z,64.80
2022-12-08T00:45:06.069Z,59.10
2022-12-08T00:46:06.119Z,62.80
2022-12-08T00:47:06.083Z,65.00
2022-12-08T00:48:06.085Z,62.30
2022-12-08T00:49:05.297Z,66.00
2022-12-08T00:50:06.336Z,69.50
2022-12-08T00:51:05.286Z,64.20
2022-12-08T00:52:05.275Z,55.40
2022-12-08T00:53:06.585Z,55.90
2022-12-08T00:54:05.283Z,58.40
2022-12-08T00:55:05.230Z,59.20
2022-12-08T00:56:05.248Z,60.20
2022-12-08T00:57:05.946Z,54.30
2022-12-08T00:58:06.590Z,62.50
2022-12-08T00:59:05.190Z,68.20
2022-12-08T01:00:05.516Z,61.30
2022-12-08T01:01:05.248Z,69.60
2022-12-08T01:02:05.183Z,60.10
2022-12-08T01:03:06.108Z,63.30
2022-12-08T01:04:06.089Z,65.90
2022-12-08T01:05:05.135Z,64.50
2022-12-08T01:06:05.141Z,58.20
2022-12-08T01:07:05.111Z,61.00
2022-12-08T01:08:05.200Z,63.50
2022-12-08T01:09:05.133Z,59.40
2022-12-08T01:10:06.295Z,56.20
2022-12-08T01:11:05.101Z,60.20
2022-12-08T01:12:05.606Z,58.10
2022-12-08T01:13:05.059Z,55.70
2022-12-08T01:14:05.590Z,60.30
2022-12-08T01:15:05.057Z,56.70
2022-12-08T01:16:05.118Z,50.80
2022-12-08T01:17:05.685Z,54.10
2022-12-08T01:18:05.014Z,55.50
2022-12-08T01:19:04.997Z,53.80
2022-12-08T01:20:05.331Z,51.60
2022-12-08T01:21:04.982Z,51.60
2022-12-08T01:22:05.691Z,53.00
2022-12-08T01:23:05.681Z,49.80
2022-12-08T01:24:04.974Z,57.00
2022-12-08T01:25:05.696Z,57.20
2022-12-08T01:26:05.588Z,56.40
2022-12-08T01:27:04.925Z,56.00
2022-12-08T01:28:04.923Z,49.70
2022-12-08T01:29:04.886Z,53.40
2022-12-08T01:30:05.830Z,53.70
2022-12-08T01:31:04.973Z,56.80
2022-12-08T01:32:04.882Z,52.90
2022-12-08T01:33:04.831Z,56.10
2022-12-08T01:34:05.590Z,50.20
2022-12-08T01:35:05.590Z,57.30
2022-12-08T01:36:05.626Z,51.70
2022-12-08T01:37:05.118Z,53.70
2022-12-08T01:38:04.856Z,52.40
2022-12-08T01:39:04.777Z,51.00
2022-12-08T01:40:05.036Z,49.50
2022-12-08T01:41:06.120Z,56.70
2022-12-08T01:42:04.739Z,55.10
2022-12-08T01:43:05.495Z,59.00
2022-12-08T01:44:04.732Z,49.30
2022-12-08T01:45:05.602Z,54.40
2022-12-08T01:46:05.589Z,54.30
2022-12-08T01:47:04.775Z,50.60
2022-12-08T01:48:04.790Z,55.70
2022-12-08T01:49:05.592Z,51.60
2022-12-08T01:50:05.135Z,51.40
2022-12-08T01:51:05.387Z,48.60
2022-12-08T01:52:04.654Z,49.10
2022-12-08T01:53:06.490Z,51.70
2022-12-08T01:54:05.627Z,47.20
2022-12-08T01:55:05.589Z,49.30
2022-12-08T01:56:04.661Z,45.00
2022-12-08T01:57:04.596Z,47.10
2022-12-08T01:58:05.595Z,49.60
2022-12-08T01:59:05.099Z,46.70
2022-12-08T02:00:04.966Z,46.70
2022-12-08T02:01:04.600Z,47.50
2022-12-08T02:02:04.586Z,40.30
2022-12-08T02:03:04.672Z,39.60
2022-12-08T02:04:04.552Z,38.80
2022-12-08T02:05:05.090Z,37.80
2022-12-08T02:06:04.503Z,40.50
2022-12-08T02:07:07.930Z,39.50
2022-12-08T02:08:04.652Z,41.50
2022-12-08T02:09:04.485Z,41.20
2022-12-08T02:10:05.665Z,37.00
2022-12-08T02:11:04.451Z,38.10
2022-12-08T02:12:04.455Z,36.90
2022-12-08T02:13:04.449Z,34.60
2022-12-08T02:14:04.425Z,35.00
2022-12-08T02:15:05.548Z,36.30
2022-12-08T02:16:04.505Z,36.90
2022-12-08T02:17:04.383Z,37.00
2022-12-08T02:18:05.144Z,31.40
2022-12-08T02:19:29.931Z,31.70
2022-12-08T02:20:04.853Z,31.60
2022-12-08T02:21:05.090Z,31.90
2022-12-08T02:22:04.420Z,35.40
2022-12-08T02:23:05.096Z,34.50
2022-12-08T02:24:05.103Z,34.60
2022-12-08T02:25:05.009Z,37.30
2022-12-08T02:26:05.041Z,32.90
2022-12-08T02:27:04.284Z,28.20
2022-12-08T02:28:04.266Z,28.50
2022-12-08T02:29:04.253Z,26.90
2022-12-08T02:30:04.615Z,28.40
2022-12-08T02:31:05.173Z,28.10
2022-12-08T02:32:04.289Z,30.60
2022-12-08T02:33:04.944Z,28.10
2022-12-08T02:34:05.105Z,28.80
2022-12-08T02:35:04.915Z,26.70
2022-12-08T02:36:04.922Z,28.00
2022-12-08T02:37:05.096Z,26.00
2022-12-08T02:38:05.596Z,31.00
2022-12-08T02:39:04.157Z,25.40
2022-12-08T02:40:05.436Z,26.40
2022-12-08T02:41:04.132Z,29.20
2022-12-08T02:42:04.833Z,28.60
2022-12-08T02:43:04.133Z,32.30
2022-12-08T02:44:04.104Z,30.70
2022-12-08T02:45:04.083Z,28.00
2022-12-08T02:46:04.148Z,28.20
2022-12-08T02:47:04.064Z,30.20
2022-12-08T02:48:04.065Z,32.70
2022-12-08T02:49:04.067Z,34.80
2022-12-08T02:50:04.340Z,37.50
2022-12-08T02:51:04.639Z,38.20
2022-12-08T02:52:04.008Z,39.00
2022-12-08T02:53:45.818Z,42.90
2022-12-08T02:54:46.791Z,40.90
2022-12-08T02:55:46.747Z,40.30
2022-12-08T02:56:47.325Z,39.40
2022-12-08T02:57:46.747Z,36.80
2022-12-08T02:58:46.720Z,34.90
2022-12-08T02:59:46.777Z,36.50
2022-12-08T03:00:46.690Z,34.60
2022-12-08T03:01:46.739Z,33.80
2022-12-08T03:02:46.736Z,33.10
2022-12-08T03:03:47.282Z,33.50
2022-12-08T03:04:47.303Z,33.70
2022-12-08T03:05:46.671Z,32.40
2022-12-08T03:06:47.277Z,31.30
2022-12-08T03:07:46.644Z,33.20
2022-12-08T03:08:56.329Z,35.20
2022-12-08T03:09:48.066Z,33.60
2022-12-08T03:10:54.387Z,31.60
2022-12-08T03:17:55.501Z,32.10
2022-12-08T03:21:45.058Z,33.00
2022-12-08T03:22:46.766Z,33.10
2022-12-08T03:23:44.518Z,37.10
2022-12-08T03:24:39.005Z,36.50
2022-12-08T03:25:39.759Z,31.60
2022-12-08T03:26:40.804Z,35.40
2022-12-08T03:27:39.005Z,35.90
2022-12-08T03:28:41.729Z,34.90
2022-12-08T03:29:47.457Z,32.70
2022-12-08T03:30:40.828Z,31.30
2022-12-08T03:31:40.884Z,36.40
2022-12-08T03:32:39.006Z,39.90
2022-12-08T03:33:40.811Z,36.60
2022-12-08T03:34:43.519Z,38.00
2022-12-08T03:35:40.833Z,36.20
2022-12-08T03:36:40.857Z,33.90
2022-12-08T03:37:40.905Z,31.50
2022-12-08T03:38:39.025Z,29.00
2022-12-08T03:39:42.509Z,28.30
2022-12-08T03:41:08.822Z,32.80
2022-12-08T03:43:50.133Z,33.10
2022-12-08T03:44:49.294Z,35.70
2022-12-08T03:45:45.819Z,35.40
2022-12-08T03:55:24.373Z,32.90
2022-12-08T03:55:29.484Z,39.20
2022-12-08T03:56:31.347Z,42.40
2022-12-08T03:57:30.320Z,41.60
2022-12-08T04:00:56.013Z,36.00
2022-12-08T04:20:07.459Z,35.30
2022-12-08T04:20:12.629Z,33.40
2022-12-08T04:21:21.082Z,43.10
2022-12-08T04:22:14.183Z,44.90
2022-12-08T04:23:13.186Z,43.30
2022-12-08T04:24:12.573Z,46.00
2022-12-08T04:25:13.196Z,46.10
2022-12-08T04:26:15.532Z,41.70
2022-12-08T04:27:13.177Z,46.20
2022-12-08T04:28:17.694Z,44.00
2022-12-08T04:29:13.210Z,45.60
2022-12-08T04:30:13.198Z,47.40
2022-12-08T04:31:13.315Z,49.10
2022-12-08T04:33:52.591Z,50.30
2022-12-08T04:33:57.611Z,47.80
2022-12-08T04:34:59.263Z,47.80
2022-12-08T04:36:00.698Z,47.70
2022-12-08T04:36:59.320Z,49.20
2022-12-08T04:37:59.940Z,57.10
2022-12-08T04:38:59.927Z,57.80
2022-12-08T04:39:58.194Z,54.10
2022-12-08T04:41:00.153Z,51.60
2022-12-08T04:41:58.236Z,59.00
2022-12-08T04:42:58.250Z,54.30
2022-12-08T04:43:58.162Z,54.40
2022-12-08T04:45:02.717Z,62.50
2022-12-08T04:45:59.045Z,54.80
2022-12-08T04:47:01.049Z,60.60
2022-12-08T05:04:47.792Z,55.30
2022-12-08T05:05:47.784Z,61.50
2022-12-08T05:11:17.177Z,50.70
2022-12-08T05:11:22.158Z,53.90
2022-12-08T05:12:22.779Z,53.60
2022-12-08T05:13:22.781Z,51.70
2022-12-08T05:14:22.132Z,51.60
2022-12-08T05:15:23.068Z,58.20
2022-12-08T05:16:25.701Z,62.30
2022-12-08T05:17:25.200Z,59.10
2022-12-08T05:18:23.809Z,54.50
2022-12-08T05:19:23.793Z,58.10
2022-12-08T05:30:05.187Z,54.50
2022-12-08T05:30:10.347Z,51.60
2022-12-08T05:31:11.360Z,46.50
2022-12-08T05:35:45.442Z,47.20
2022-12-08T05:36:50.057Z,54.50
2022-12-08T05:37:47.828Z,52.00
2022-12-08T05:38:49.307Z,49.60
2022-12-08T05:39:48.759Z,48.70
2022-12-08T05:40:47.979Z,51.80
2022-12-08T05:41:46.953Z,49.80
2022-12-08T05:42:46.965Z,47.00
2022-12-08T05:43:46.959Z,51.10
2022-12-08T05:44:47.963Z,46.90
2022-12-08T05:45:47.064Z,49.80
2022-12-08T05:46:46.958Z,50.50
2022-12-08T05:47:50.040Z,54.20
2022-12-08T05:48:46.970Z,49.00
2022-12-08T05:49:48.939Z,51.80
2022-12-08T05:50:46.933Z,49.30
2022-12-08T05:51:46.967Z,47.80
2022-12-08T05:52:46.960Z,53.40
2022-12-08T05:53:46.953Z,55.70
2022-12-08T05:54:46.946Z,44.80
2022-12-08T05:55:46.975Z,56.30
2022-12-08T05:56:47.970Z,60.30
2022-12-08T05:57:46.985Z,49.00
2022-12-08T05:58:46.972Z,47.40
2022-12-08T05:59:51.476Z,46.60
2022-12-08T06:00:59.544Z,47.00
2022-12-08T06:01:50.475Z,49.70
2022-12-08T06:02:47.135Z,49.50
2022-12-08T06:03:46.960Z,53.50
2022-12-08T06:04:46.968Z,52.50
2022-12-08T06:05:45.971Z,52.20
2022-12-08T06:06:46.950Z,53.20
2022-12-08T06:07:47.514Z,57.50
2022-12-08T06:08:46.432Z,51.80
2022-12-08T06:09:45.920Z,50.20
2022-12-08T06:10:46.426Z,47.90
2022-12-08T06:11:47.476Z,47.90
2022-12-08T06:12:46.450Z,47.40
2022-12-08T06:13:46.476Z,52.80
2022-12-08T06:14:45.873Z,50.70
2022-12-08T06:15:46.462Z,53.30
2022-12-08T06:16:47.532Z,52.30
2022-12-08T06:17:45.857Z,48.80
2022-12-08T06:18:46.463Z,54.30
2022-12-08T06:19:47.477Z,57.00
2022-12-08T06:20:46.438Z,52.80
2022-12-08T06:21:47.463Z,51.50
2022-12-08T06:22:46.439Z,53.20
2022-12-08T06:23:47.484Z,58.70
2022-12-08T06:24:47.459Z,55.80
2022-12-08T06:25:46.461Z,54.90
2022-12-08T06:26:45.748Z,51.30
2022-12-08T06:27:47.468Z,55.00
2022-12-08T06:28:46.439Z,58.40
2022-12-08T06:29:46.457Z,62.20
2022-12-08T06:30:47.479Z,60.80
2022-12-08T06:31:46.519Z,56.40
2022-12-08T06:32:46.457Z,58.10
2022-12-08T06:33:46.454Z,57.40
2022-12-08T06:34:46.454Z,60.10
2022-12-08T06:35:46.452Z,55.20
2022-12-08T06:36:47.470Z,52.80
2022-12-08T06:37:46.473Z,48.30
2022-12-08T06:38:46.452Z,54.90
2022-12-08T06:39:46.453Z,50.60
2022-12-08T06:40:46.443Z,53.60
2022-12-08T06:41:45.604Z,54.70
2022-12-08T06:42:46.445Z,52.10
2022-12-08T06:43:47.468Z,52.30
2022-12-08T06:44:47.495Z,52.00
2022-12-08T06:45:46.568Z,52.00
2022-12-08T06:46:46.435Z,57.40
2022-12-08T06:47:46.467Z,59.00
2022-12-08T06:48:46.455Z,56.80
2022-12-08T06:49:46.458Z,51.50
2022-12-08T06:50:46.457Z,55.20
2022-12-08T06:51:46.465Z,55.50
2022-12-08T06:52:56.940Z,54.90
2022-12-08T06:53:46.449Z,51.00
2022-12-08T06:54:50.966Z,56.50
2022-12-08T06:56:01.816Z,55.10
2022-12-08T06:56:45.940Z,49.80
2022-12-08T06:57:45.953Z,45.30
2022-12-08T06:58:50.615Z,48.00
2022-12-08T06:59:45.966Z,54.10
2022-12-08T07:00:47.088Z,53.90
2022-12-08T07:01:47.105Z,47.80
2022-12-08T07:02:46.055Z,53.30
2022-12-08T07:03:45.977Z,55.60
2022-12-08T07:04:45.958Z,54.80
2022-12-08T07:05:46.985Z,47.90
2022-12-08T07:06:45.954Z,54.60
2022-12-08T07:07:45.369Z,53.90
2022-12-08T07:08:45.980Z,55.40
2022-12-08T07:09:45.961Z,59.10
2022-12-08T07:10:46.977Z,58.40
2022-12-08T07:11:48.203Z,51.50
2022-12-08T07:12:45.956Z,52.80
2022-12-08T07:13:45.954Z,51.00
2022-12-08T07:14:46.960Z,46.30
2022-12-08T07:15:46.979Z,48.10
2022-12-08T07:16:47.051Z,49.90
2022-12-08T07:17:45.958Z,47.10
2022-12-08T07:18:45.996Z,52.40
2022-12-08T07:19:45.955Z,50.10
2022-12-08T07:20:45.952Z,46.80
2022-12-08T07:21:46.462Z,49.10
2022-12-08T07:22:45.988Z,48.90
2022-12-08T07:23:45.969Z,50.20
2022-12-08T07:24:45.952Z,54.70
2022-12-08T07:25:45.961Z,48.60
2022-12-08T07:28:05.491Z,52.30
2022-12-08T07:29:05.741Z,57.10
2022-12-08T07:30:05.989Z,57.40
2022-12-08T07:31:09.591Z,51.20
2022-12-08T07:32:06.737Z,62.80
2022-12-08T07:33:05.711Z,61.90
2022-12-08T07:34:05.724Z,58.50
2022-12-08T07:35:05.716Z,63.70
2022-12-08T07:36:05.736Z,59.60
2022-12-08T07:37:06.730Z,52.50
2022-12-08T07:38:06.744Z,58.00
2022-12-08T07:39:05.718Z,50.60
2022-12-08T07:40:06.061Z,54.40
2022-12-08T07:41:05.713Z,62.10
2022-12-08T07:42:05.231Z,63.20
2022-12-08T07:43:05.719Z,54.40
2022-12-08T07:44:05.732Z,53.40
2022-12-08T07:45:09.387Z,53.80
2022-12-08T07:46:05.829Z,57.70
2022-12-08T07:47:06.744Z,64.40
2022-12-08T07:48:05.724Z,53.20
2022-12-08T07:49:06.731Z,59.30
2022-12-08T07:50:19.229Z,55.70
2022-12-08T07:51:05.731Z,59.60
2022-12-08T07:52:05.746Z,57.60
2022-12-08T07:53:06.412Z,59.50
2022-12-08T07:54:05.243Z,54.60
2022-12-08T07:55:06.732Z,53.50
2022-12-08T07:56:06.378Z,55.70
2022-12-08T07:57:05.744Z,59.80
2022-12-08T07:58:05.738Z,58.30
2022-12-08T07:59:05.776Z,62.20
2022-12-08T08:00:07.109Z,53.50
2022-12-08T08:01:05.919Z,55.10
2022-12-08T08:02:23.351Z,50.40
2022-12-08T08:03:04.894Z,49.70
2022-12-08T08:04:05.789Z,54.40
2022-12-08T08:05:06.796Z,48.20
2022-12-08T08:06:05.737Z,52.90
2022-12-08T08:07:05.231Z,50.90
2022-12-08T08:08:05.817Z,45.90
2022-12-08T08:09:05.715Z,49.90
2022-12-08T08:10:06.045Z,44.80
2022-12-08T08:11:14.580Z,46.30
2022-12-08T08:12:30.242Z,51.70
2022-12-08T08:13:04.726Z,43.40
2022-12-08T08:14:05.240Z,45.00
2022-12-08T08:15:06.234Z,44.70
2022-12-08T08:16:05.345Z,45.70
2022-12-08T08:17:06.489Z,47.80
2022-12-08T08:18:12.028Z,46.60
2022-12-08T08:19:05.212Z,46.50
2022-12-08T08:20:06.510Z,46.50
2022-12-08T08:21:22.262Z,53.40
2022-12-08T08:22:04.632Z,41.90
2022-12-08T08:23:05.220Z,44.80
2022-12-08T08:24:05.244Z,46.10
2022-12-08T08:25:05.222Z,44.70
2022-12-08T08:26:06.251Z,47.50
2022-12-08T08:27:04.561Z,39.20
2022-12-08T08:28:05.245Z,39.70
2022-12-08T08:29:05.224Z,42.30
2022-12-08T08:30:08.323Z,48.00
2022-12-08T08:31:05.266Z,40.90
2022-12-08T08:32:04.520Z,43.70
2022-12-08T08:33:05.225Z,42.60
2022-12-08T08:34:05.228Z,40.80
2022-12-08T08:35:06.251Z,43.50
2022-12-08T08:36:06.928Z,39.80
2022-12-08T08:37:04.536Z,44.60
2022-12-08T08:38:05.227Z,43.00
2022-12-08T08:39:05.241Z,40.00
2022-12-08T08:40:05.618Z,38.00
2022-12-08T08:41:06.253Z,38.40
2022-12-08T08:42:04.459Z,35.20
2022-12-08T08:43:06.265Z,35.30
2022-12-08T08:44:05.234Z,46.00
2022-12-08T08:45:05.226Z,34.50
2022-12-08T08:46:05.291Z,37.60
2022-12-08T08:47:05.234Z,35.90
2022-12-08T08:48:06.236Z,45.10
2022-12-08T08:49:05.214Z,40.80
2022-12-08T08:50:05.623Z,43.40
2022-12-08T08:51:05.321Z,36.80
2022-12-08T08:52:05.241Z,36.90
2022-12-08T08:53:05.729Z,40.40
2022-12-08T08:54:05.240Z,38.60
2022-12-08T08:55:05.218Z,43.80
2022-12-08T08:56:05.237Z,43.20
2022-12-08T08:57:06.245Z,43.10
2022-12-08T08:58:05.247Z,37.90
2022-12-08T08:59:05.227Z,34.00
2022-12-08T09:00:05.155Z,34.10
2022-12-08T09:01:09.279Z,33.90
2022-12-08T09:02:04.278Z,29.00
2022-12-08T09:03:05.742Z,33.50
2022-12-08T09:04:04.826Z,34.30
2022-12-08T09:05:04.850Z,33.20
2022-12-08T09:06:04.777Z,32.80
2022-12-08T09:07:04.729Z,32.30
2022-12-08T09:08:04.853Z,30.30
2022-12-08T09:09:05.456Z,28.10
2022-12-08T09:10:04.945Z,26.50
2022-12-08T09:11:04.755Z,29.30
2022-12-08T09:12:04.104Z,31.60
2022-12-08T09:13:05.729Z,31.10
2022-12-08T09:14:06.518Z,27.10
2022-12-08T09:15:05.486Z,25.20
2022-12-08T09:16:04.905Z,25.70
2022-12-08T09:17:04.743Z,25.30
2022-12-08T09:18:04.760Z,26.10
2022-12-08T09:19:04.734Z,24.80
2022-12-08T09:20:04.536Z,27.90
2022-12-08T09:21:04.723Z,27.00
2022-12-08T09:22:04.741Z,26.40
2022-12-08T09:23:04.730Z,26.10
2022-12-08T09:24:04.771Z,29.30
2022-12-08T09:25:05.764Z,23.70
2022-12-08T09:26:03.964Z,28.00
2022-12-08T09:27:05.745Z,24.60
2022-12-08T09:28:04.755Z,30.60
2022-12-08T09:29:08.431Z,30.50
2022-12-08T09:30:05.972Z,28.30
2022-12-08T09:31:08.334Z,30.00
2022-12-08T09:32:04.820Z,30.80
2022-12-08T09:33:04.723Z,30.30
2022-12-08T09:34:06.605Z,30.40
2022-12-08T09:35:04.745Z,30.00
2022-12-08T09:36:04.906Z,33.00
2022-12-08T09:37:04.762Z,28.20
2022-12-08T09:38:04.745Z,27.70
2022-12-08T09:39:05.453Z,33.40
2022-12-08T09:40:05.676Z,28.00
2022-12-08T09:41:04.749Z,33.60
2022-12-08T09:42:06.422Z,33.30
2022-12-08T09:43:04.975Z,35.30
2022-12-08T09:44:03.760Z,32.90
2022-12-08T09:45:03.753Z,35.70
2022-12-08T09:46:03.809Z,30.10
2022-12-08T09:47:06.832Z,34.60
2022-12-08T09:48:05.301Z,34.20
2022-12-08T09:49:04.241Z,37.40
2022-12-08T09:50:03.991Z,35.20
2022-12-08T09:51:04.255Z,34.50
2022-12-08T09:52:05.285Z,32.40
2022-12-08T09:53:03.664Z,35.80
2022-12-08T09:54:03.686Z,31.30
2022-12-08T09:55:04.233Z,30.00
2022-12-08T09:56:04.241Z,29.40
2022-12-08T09:57:04.241Z,29.50
2022-12-08T09:58:03.761Z,31.20
2022-12-08T09:59:04.238Z,31.70
2022-12-08T10:00:05.422Z,31.30
2022-12-08T10:01:04.938Z,30.10
2022-12-08T10:02:05.325Z,31.00
2022-12-08T10:03:03.567Z,30.20
2022-12-08T10:04:04.488Z,29.10
2022-12-08T10:05:03.782Z,28.80
2022-12-08T10:06:04.250Z,27.60
2022-12-08T10:07:04.234Z,29.00
2022-12-08T10:08:03.602Z,25.30
2022-12-08T10:09:04.753Z,29.60
2022-12-08T10:10:05.548Z,27.80
2022-12-08T10:11:04.231Z,26.40
2022-12-08T10:12:05.110Z,26.90
2022-12-08T10:13:04.244Z,31.10
2022-12-08T10:14:04.249Z,31.70
2022-12-08T10:15:04.250Z,30.50
2022-12-08T10:16:04.373Z,27.70
2022-12-08T10:17:04.320Z,28.50
2022-12-08T10:18:03.410Z,27.80
2022-12-08T10:19:05.265Z,26.70
2022-12-08T10:20:04.462Z,29.10
2022-12-08T10:21:04.242Z,26.50
2022-12-08T10:22:04.270Z,31.50
2022-12-08T10:23:04.234Z,27.20
2022-12-08T10:24:04.242Z,24.50
2022-12-08T10:25:04.243Z,24.50
2022-12-08T10:26:03.757Z,24.70
2022-12-08T10:27:04.234Z,30.60
2022-12-08T10:28:03.302Z,26.50
2022-12-08T10:29:07.926Z,26.60
2022-12-08T10:30:06.401Z,31.30
2022-12-08T10:31:04.431Z,30.60
2022-12-08T10:32:04.342Z,29.80
2022-12-08T10:33:03.246Z,27.20
2022-12-08T10:34:03.734Z,23.60
2022-12-08T10:35:06.251Z,30.50
2022-12-08T10:36:04.849Z,31.40
2022-12-08T10:37:03.749Z,35.70
2022-12-08T10:38:03.216Z,28.10
2022-12-08T10:39:03.731Z,26.10
2022-12-08T10:40:05.057Z,31.10
2022-12-08T10:41:03.737Z,31.10
2022-12-08T10:42:03.747Z,26.70
2022-12-08T10:43:03.289Z,27.80
2022-12-08T10:44:03.742Z,25.10
2022-12-08T10:45:03.130Z,30.60
2022-12-08T10:46:04.782Z,33.10
2022-12-08T10:47:03.805Z,23.70
2022-12-08T10:48:03.087Z,27.30
2022-12-08T10:49:03.746Z,27.80
2022-12-08T10:50:04.043Z,24.70
2022-12-08T10:51:03.752Z,23.10
2022-12-08T10:52:04.780Z,24.50
2022-12-08T10:53:03.739Z,26.20
2022-12-08T10:54:03.024Z,22.10
2022-12-08T10:55:03.773Z,24.70
2022-12-08T10:56:03.741Z,24.80
2022-12-08T10:57:04.779Z,23.60
2022-12-08T10:58:02.984Z,26.60
2022-12-08T10:59:02.980Z,23.10
2022-12-08T11:00:06.140Z,23.90
2022-12-08T11:01:03.110Z,26.70
2022-12-08T11:02:04.839Z,25.10
2022-12-08T11:03:05.494Z,27.20
2022-12-08T11:04:03.734Z,25.40
2022-12-08T11:05:03.755Z,24.60
2022-12-08T11:06:10.460Z,29.90
2022-12-08T11:07:03.263Z,24.30
2022-12-08T11:08:03.786Z,27.10
2022-12-08T11:09:02.858Z,25.50
2022-12-08T11:10:04.097Z,28.00
2022-12-08T11:11:03.739Z,29.40
2022-12-08T11:12:02.874Z,29.80
2022-12-08T11:13:04.248Z,29.60
2022-12-08T11:14:03.751Z,25.70
2022-12-08T11:15:02.802Z,29.20
2022-12-08T11:16:03.776Z,27.10
2022-12-08T11:17:03.841Z,34.40
2022-12-08T11:18:04.768Z,27.60
2022-12-08T11:19:03.740Z,27.60
2022-12-08T11:20:04.313Z,27.00
2022-12-08T11:21:03.260Z,29.10
2022-12-08T11:22:03.256Z,28.00
2022-12-08T11:23:05.244Z,27.90
2022-12-08T11:24:03.246Z,22.70
2022-12-08T11:25:02.712Z,26.60
2022-12-08T11:26:02.711Z,32.40
2022-12-08T11:27:03.255Z,25.60
2022-12-08T11:28:03.255Z,26.80
2022-12-08T11:29:03.247Z,27.60
2022-12-08T11:30:07.414Z,33.30
2022-12-08T11:31:03.255Z,27.50
2022-12-08T11:32:03.359Z,27.20
2022-12-08T11:33:03.262Z,28.30
2022-12-08T11:34:03.242Z,28.50
2022-12-08T11:35:03.242Z,26.60
2022-12-08T11:36:04.265Z,26.60
2022-12-08T11:37:04.026Z,27.90
2022-12-08T11:38:19.890Z,27.50
2022-12-08T11:39:02.776Z,26.60
2022-12-08T11:40:02.881Z,27.30
2022-12-08T11:41:04.285Z,24.30
2022-12-08T11:42:03.259Z,27.10
2022-12-08T11:43:04.979Z,29.30
2022-12-08T11:44:03.245Z,25.30
2022-12-08T11:45:05.417Z,26.20
2022-12-08T11:46:03.335Z,25.60
2022-12-08T11:47:02.482Z,24.80
2022-12-08T11:48:11.494Z,25.30
2022-12-08T11:49:06.308Z,23.90
2022-12-08T11:50:02.687Z,22.40
2022-12-08T11:51:02.781Z,26.20
2022-12-08T11:52:02.462Z,27.60
2022-12-08T11:53:02.420Z,23.60
2022-12-08T11:54:02.408Z,25.70
2022-12-08T11:55:05.325Z,25.80
2022-12-08T11:56:02.409Z,24.70
2022-12-08T11:57:02.408Z,24.30
2022-12-08T11:58:02.435Z,28.60
2022-12-08T11:59:02.359Z,24.10
2022-12-08T12:00:02.728Z,26.00
2022-12-08T12:01:02.332Z,23.90
2022-12-08T12:02:02.359Z,21.50
2022-12-08T12:03:02.373Z,23.50
2022-12-08T12:04:02.325Z,25.80
2022-12-08T12:05:02.287Z,27.60
2022-12-08T12:06:18.614Z,25.40
2022-12-08T12:07:02.300Z,26.60
2022-12-08T12:08:02.374Z,22.60
2022-12-08T12:09:02.258Z,22.40
2022-12-08T12:10:02.569Z,21.50
2022-12-08T12:11:02.433Z,24.60
2022-12-08T12:12:02.250Z,24.60
2022-12-08T12:13:02.236Z,23.80
2022-12-08T12:14:02.195Z,24.30
2022-12-08T12:15:02.195Z,23.40
2022-12-08T12:16:02.196Z,20.90
2022-12-08T12:17:02.313Z,22.40
2022-12-08T12:18:02.182Z,21.90
2022-12-08T12:19:02.183Z,23.10
2022-12-08T12:20:02.428Z,24.10
2022-12-08T12:21:02.216Z,22.30
2022-12-08T12:22:02.114Z,21.30
2022-12-08T12:23:02.264Z,20.20
2022-12-08T12:24:02.111Z,23.90
2022-12-08T12:25:02.097Z,22.20
2022-12-08T12:26:02.074Z,23.20
2022-12-08T12:27:02.056Z,22.50
2022-12-08T12:28:02.059Z,21.30
2022-12-08T12:29:02.073Z,21.00
2022-12-08T12:30:02.029Z,22.70
2022-12-08T12:31:02.105Z,20.60
2022-12-08T12:32:02.003Z,20.40
2022-12-08T12:33:02.009Z,19.90
2022-12-08T12:34:02.258Z,20.90
2022-12-08T12:35:01.994Z,20.50
2022-12-08T12:36:01.983Z,20.20
2022-12-08T12:37:01.963Z,20.00
2022-12-08T12:38:01.968Z,21.80
2022-12-08T12:39:01.945Z,22.00
2022-12-08T12:40:02.140Z,22.70
2022-12-08T12:41:01.946Z,23.70
2022-12-08T12:42:01.952Z,21.50
2022-12-08T12:43:01.912Z,23.10
2022-12-08T12:44:01.913Z,21.20
2022-12-08T12:45:01.889Z,21.50
2022-12-08T12:46:01.911Z,22.30
2022-12-08T12:47:01.853Z,20.90
2022-12-08T12:48:01.847Z,20.60
2022-12-08T12:49:01.843Z,22.80
2022-12-08T12:50:02.157Z,19.80
2022-12-08T12:51:01.841Z,20.60
2022-12-08T12:52:01.812Z,22.20
2022-12-08T12:53:01.799Z,20.20
2022-12-08T12:54:01.784Z,18.10
2022-12-08T12:55:01.797Z,22.30
2022-12-08T12:56:01.774Z,21.10
2022-12-08T12:57:01.762Z,22.00
2022-12-08T12:58:01.759Z,22.40
2022-12-08T12:59:01.731Z,20.50
2022-12-08T13:00:01.715Z,22.20
2022-12-08T13:01:01.793Z,20.70
2022-12-08T13:02:01.766Z,24.80
2022-12-08T13:03:01.781Z,17.30
2022-12-08T13:04:01.696Z,20.60
2022-12-08T13:05:01.694Z,20.70
2022-12-08T13:06:01.662Z,20.70
2022-12-08T13:07:01.678Z,19.50
2022-12-08T13:08:01.685Z,19.80
2022-12-08T13:09:01.625Z,22.80
2022-12-08T13:10:01.685Z,21.00
2022-12-08T13:11:01.640Z,19.70
2022-12-08T13:12:01.589Z,22.20
2022-12-08T13:13:01.624Z,19.80
2022-12-08T13:14:01.581Z,19.30
2022-12-08T13:15:01.567Z,18.70
2022-12-08T13:16:09.989Z,21.60
2022-12-08T13:17:01.876Z,22.20
2022-12-08T13:18:01.524Z,23.10
2022-12-08T13:19:01.523Z,21.70
2022-12-08T13:20:01.528Z,21.30
2022-12-08T13:21:01.512Z,21.40
2022-12-08T13:22:01.507Z,18.20
2022-12-08T13:23:01.504Z,19.50
2022-12-08T13:24:01.469Z,21.50
2022-12-08T13:25:01.489Z,20.10
2022-12-08T13:26:01.468Z,21.30
2022-12-08T13:27:01.476Z,22.00
2022-12-08T13:28:01.443Z,20.10
2022-12-08T13:29:01.447Z,21.90
2022-12-08T13:30:01.581Z,17.80
2022-12-08T13:31:01.463Z,20.80
2022-12-08T13:32:01.398Z,17.90
2022-12-08T13:33:18.416Z,17.80
2022-12-08T13:34:01.410Z,17.60
2022-12-08T13:35:01.363Z,20.10
2022-12-08T13:36:01.345Z,19.20
2022-12-08T13:37:01.370Z,18.30
2022-12-08T13:38:01.324Z,24.00
2022-12-08T13:39:01.331Z,20.80
2022-12-08T13:40:01.304Z,19.00
2022-12-08T13:41:01.314Z,22.70
2022-12-08T13:42:01.292Z,19.30
2022-12-08T13:43:01.319Z,19.00
2022-12-08T13:45:22.270Z,20.40
2022-12-08T13:53:41.903Z,19.80
2022-12-08T13:57:12.211Z,20.10
2022-12-08T13:58:10.732Z,24.40
2022-12-08T13:59:10.635Z,21.40
2022-12-08T14:00:10.611Z,22.20
2022-12-08T14:01:10.753Z,22.00
2022-12-08T14:02:10.620Z,19.30
2022-12-08T14:03:11.414Z,27.60
2022-12-08T14:04:37.530Z,24.60
2022-12-08T14:05:40.629Z,25.80
2022-12-08T14:06:13.052Z,21.00
2022-12-08T14:07:10.544Z,21.00
2022-12-08T14:08:10.545Z,26.00
2022-12-08T14:09:11.296Z,25.40
2022-12-08T14:10:10.523Z,22.20
2022-12-08T14:11:10.501Z,23.20
2022-12-08T14:12:10.518Z,18.60
2022-12-08T14:13:10.494Z,24.10
2022-12-08T14:14:10.472Z,27.20
2022-12-08T14:15:10.463Z,21.30
2022-12-08T14:16:10.496Z,23.00
2022-12-08T14:17:10.492Z,23.10